sensor_id;sensor_type;location;lat;lon;timestamp;P1;durP1;ratioP1;P2;durP2;ratioP2
34805;SDS011;65084;42.196;25.326;2023-12-29T00:02:25;15.88;;;8.88;;
34805;SDS011;65084;42.196;25.326;2023-12-29T00:04:53;14.07;;;8.52;;
34805;SDS011;65084;42.196;25.326;2023-12-29T00:07:20;11.50;;;7.28;;
34805;SDS011;65084;42.196;25.326;2023-12-29T00:09:48;13.25;;;7.97;;
34805;SDS011;65084;42.196;25.326;2023-12-29T00:12:16;12.02;;;7.07;;
34805;SDS011;65084;42.196;25.326;2023-12-29T00:14:43;16.85;;;8.15;;
34805;SDS011;65084;42.196;25.326;2023-12-29T00:17:10;11.95;;;7.43;;
34805;SDS011;65084;42.196;25.326;2023-12-29T00:19:38;12.07;;;7.53;;
34805;SDS011;65084;42.196;25.326;2023-12-29T00:22:05;11.88;;;6.68;;
34805;SDS011;65084;42.196;25.326;2023-12-29T00:24:32;9.05;;;6.95;;
34805;SDS011;65084;42.196;25.326;2023-12-29T00:27:02;12.02;;;7.03;;
34805;SDS011;65084;42.196;25.326;2023-12-29T00:29:29;7.53;;;6.43;;
34805;SDS011;65084;42.196;25.326;2023-12-29T00:31:58;10.38;;;6.88;;
34805;SDS011;65084;42.196;25.326;2023-12-29T00:34:27;12.63;;;6.65;;
34805;SDS011;65084;42.196;25.326;2023-12-29T00:36:54;11.65;;;7.47;;
34805;SDS011;65084;42.196;25.326;2023-12-29T00:39:21;10.07;;;6.50;;
34805;SDS011;65084;42.196;25.326;2023-12-29T00:41:53;12.38;;;7.05;;
34805;SDS011;65084;42.196;25.326;2023-12-29T00:44:23;9.55;;;6.78;;
34805;SDS011;65084;42.196;25.326;2023-12-29T00:46:50;15.35;;;8.02;;
34805;SDS011;65084;42.196;25.326;2023-12-29T00:49:17;10.77;;;6.90;;
34805;SDS011;65084;42.196;25.326;2023-12-29T00:51:45;14.52;;;8.32;;
34805;SDS011;65084;42.196;25.326;2023-12-29T00:54:12;13.68;;;7.68;;
34805;SDS011;65084;42.196;25.326;2023-12-29T00:56:39;16.95;;;8.20;;
34805;SDS011;65084;42.196;25.326;2023-12-29T00:59:06;8.85;;;7.15;;
34805;SDS011;65084;42.196;25.326;2023-12-29T01:01:35;10.13;;;7.75;;
34805;SDS011;65084;42.196;25.326;2023-12-29T01:04:02;13.27;;;7.18;;
34805;SDS011;65084;42.196;25.326;2023-12-29T01:06:30;13.15;;;8.00;;
34805;SDS011;65084;42.196;25.326;2023-12-29T01:08:57;11.02;;;7.03;;
34805;SDS011;65084;42.196;25.326;2023-12-29T01:11:24;11.50;;;7.43;;
34805;SDS011;65084;42.196;25.326;2023-12-29T01:13:51;10.63;;;6.90;;
34805;SDS011;65084;42.196;25.326;2023-12-29T01:16:19;10.63;;;7.65;;
34805;SDS011;65084;42.196;25.326;2023-12-29T01:18:47;10.73;;;7.00;;
34805;SDS011;65084;42.196;25.326;2023-12-29T01:21:15;10.23;;;7.30;;
34805;SDS011;65084;42.196;25.326;2023-12-29T01:23:42;14.27;;;8.27;;
34805;SDS011;65084;42.196;25.326;2023-12-29T01:26:09;13.77;;;8.57;;
34805;SDS011;65084;42.196;25.326;2023-12-29T01:28:36;21.50;;;8.70;;
34805;SDS011;65084;42.196;25.326;2023-12-29T01:31:04;13.68;;;8.13;;
34805;SDS011;65084;42.196;25.326;2023-12-29T01:33:31;15.95;;;8.52;;
34805;SDS011;65084;42.196;25.326;2023-12-29T01:36:00;12.07;;;7.65;;
34805;SDS011;65084;42.196;25.326;2023-12-29T01:38:27;13.48;;;8.65;;
34805;SDS011;65084;42.196;25.326;2023-12-29T01:40:54;14.80;;;9.32;;
34805;SDS011;65084;42.196;25.326;2023-12-29T01:43:22;12.65;;;8.35;;
34805;SDS011;65084;42.196;25.326;2023-12-29T01:45:49;14.65;;;8.52;;
34805;SDS011;65084;42.196;25.326;2023-12-29T01:48:16;14.52;;;8.90;;
34805;SDS011;65084;42.196;25.326;2023-12-29T01:50:43;14.27;;;8.10;;
34805;SDS011;65084;42.196;25.326;2023-12-29T01:53:13;13.02;;;8.68;;
34805;SDS011;65084;42.196;25.326;2023-12-29T01:55:40;14.70;;;9.13;;
34805;SDS011;65084;42.196;25.326;2023-12-29T01:58:08;17.88;;;10.35;;
34805;SDS011;65084;42.196;25.326;2023-12-29T02:00:36;21.15;;;11.50;;
34805;SDS011;65084;42.196;25.326;2023-12-29T02:03:03;18.98;;;9.85;;
34805;SDS011;65084;42.196;25.326;2023-12-29T02:05:30;17.70;;;10.95;;
34805;SDS011;65084;42.196;25.326;2023-12-29T02:07:59;18.10;;;10.93;;
34805;SDS011;65084;42.196;25.326;2023-12-29T02:10:28;19.98;;;11.73;;
34805;SDS011;65084;42.196;25.326;2023-12-29T02:12:56;26.45;;;13.93;;
34805;SDS011;65084;42.196;25.326;2023-12-29T02:15:25;21.70;;;12.77;;
34805;SDS011;65084;42.196;25.326;2023-12-29T02:17:58;26.02;;;13.75;;
34805;SDS011;65084;42.196;25.326;2023-12-29T02:20:26;27.27;;;13.77;;
34805;SDS011;65084;42.196;25.326;2023-12-29T02:22:54;23.42;;;13.65;;
34805;SDS011;65084;42.196;25.326;2023-12-29T02:25:22;24.90;;;13.13;;
34805;SDS011;65084;42.196;25.326;2023-12-29T02:27:51;27.88;;;13.95;;
34805;SDS011;65084;42.196;25.326;2023-12-29T02:30:23;23.63;;;12.80;;
34805;SDS011;65084;42.196;25.326;2023-12-29T02:32:52;21.58;;;12.20;;
34805;SDS011;65084;42.196;25.326;2023-12-29T02:35:23;23.33;;;12.23;;
34805;SDS011;65084;42.196;25.326;2023-12-29T02:37:52;25.83;;;12.48;;
34805;SDS011;65084;42.196;25.326;2023-12-29T02:40:19;29.30;;;12.02;;
34805;SDS011;65084;42.196;25.326;2023-12-29T02:42:48;25.92;;;13.35;;
34805;SDS011;65084;42.196;25.326;2023-12-29T02:45:16;26.35;;;13.55;;
34805;SDS011;65084;42.196;25.326;2023-12-29T02:47:44;30.23;;;14.43;;
34805;SDS011;65084;42.196;25.326;2023-12-29T02:50:11;30.98;;;16.23;;
34805;SDS011;65084;42.196;25.326;2023-12-29T02:52:39;37.42;;;16.30;;
34805;SDS011;65084;42.196;25.326;2023-12-29T02:55:06;27.40;;;14.68;;
34805;SDS011;65084;42.196;25.326;2023-12-29T02:57:34;22.42;;;13.43;;
34805;SDS011;65084;42.196;25.326;2023-12-29T03:00:03;18.15;;;11.80;;
34805;SDS011;65084;42.196;25.326;2023-12-29T03:02:30;18.63;;;11.68;;
34805;SDS011;65084;42.196;25.326;2023-12-29T03:04:57;24.02;;;11.50;;
34805;SDS011;65084;42.196;25.326;2023-12-29T03:07:25;20.55;;;11.02;;
34805;SDS011;65084;42.196;25.326;2023-12-29T03:09:52;26.08;;;13.95;;
34805;SDS011;65084;42.196;25.326;2023-12-29T03:12:20;24.15;;;13.65;;
34805;SDS011;65084;42.196;25.326;2023-12-29T03:14:47;27.38;;;14.52;;
34805;SDS011;65084;42.196;25.326;2023-12-29T03:17:16;26.63;;;15.15;;
34805;SDS011;65084;42.196;25.326;2023-12-29T03:19:43;25.88;;;14.45;;
34805;SDS011;65084;42.196;25.326;2023-12-29T03:22:10;29.80;;;13.75;;
34805;SDS011;65084;42.196;25.326;2023-12-29T03:24:39;32.80;;;13.88;;
34805;SDS011;65084;42.196;25.326;2023-12-29T03:27:07;32.05;;;15.90;;
34805;SDS011;65084;42.196;25.326;2023-12-29T03:29:34;27.13;;;12.13;;
34805;SDS011;65084;42.196;25.326;2023-12-29T03:32:02;17.23;;;11.13;;
34805;SDS011;65084;42.196;25.326;2023-12-29T03:34:30;19.25;;;10.85;;
34805;SDS011;65084;42.196;25.326;2023-12-29T03:36:58;25.75;;;10.45;;
34805;SDS011;65084;42.196;25.326;2023-12-29T03:39:25;14.55;;;8.50;;
34805;SDS011;65084;42.196;25.326;2023-12-29T03:41:52;29.20;;;11.65;;
34805;SDS011;65084;42.196;25.326;2023-12-29T03:44:20;19.77;;;9.82;;
34805;SDS011;65084;42.196;25.326;2023-12-29T03:46:47;25.30;;;10.73;;
34805;SDS011;65084;42.196;25.326;2023-12-29T03:49:14;39.70;;;16.20;;
34805;SDS011;65084;42.196;25.326;2023-12-29T03:51:43;31.85;;;14.68;;
34805;SDS011;65084;42.196;25.326;2023-12-29T03:54:11;18.38;;;9.80;;
34805;SDS011;65084;42.196;25.326;2023-12-29T03:56:38;17.02;;;9.57;;
34805;SDS011;65084;42.196;25.326;2023-12-29T03:59:05;15.77;;;9.82;;
34805;SDS011;65084;42.196;25.326;2023-12-29T04:01:33;22.00;;;9.95;;
34805;SDS011;65084;42.196;25.326;2023-12-29T04:04:00;20.13;;;11.63;;
34805;SDS011;65084;42.196;25.326;2023-12-29T04:06:28;17.50;;;10.63;;
34805;SDS011;65084;42.196;25.326;2023-12-29T04:08:57;20.23;;;11.48;;
34805;SDS011;65084;42.196;25.326;2023-12-29T04:11:24;48.05;;;20.55;;
34805;SDS011;65084;42.196;25.326;2023-12-29T04:13:52;46.20;;;20.73;;
34805;SDS011;65084;42.196;25.326;2023-12-29T04:16:20;65.75;;;30.08;;
34805;SDS011;65084;42.196;25.326;2023-12-29T04:18:47;50.03;;;21.65;;
34805;SDS011;65084;42.196;25.326;2023-12-29T04:21:14;26.73;;;14.52;;
34805;SDS011;65084;42.196;25.326;2023-12-29T04:23:41;21.77;;;13.52;;
34805;SDS011;65084;42.196;25.326;2023-12-29T04:26:10;26.45;;;12.13;;
34805;SDS011;65084;42.196;25.326;2023-12-29T04:28:37;22.50;;;12.30;;
34805;SDS011;65084;42.196;25.326;2023-12-29T04:31:05;22.35;;;11.77;;
34805;SDS011;65084;42.196;25.326;2023-12-29T04:33:32;21.77;;;12.15;;
34805;SDS011;65084;42.196;25.326;2023-12-29T04:35:59;21.20;;;12.05;;
34805;SDS011;65084;42.196;25.326;2023-12-29T04:38:26;26.92;;;13.30;;
34805;SDS011;65084;42.196;25.326;2023-12-29T04:40:54;21.60;;;13.73;;
34805;SDS011;65084;42.196;25.326;2023-12-29T04:43:22;22.05;;;13.90;;
34805;SDS011;65084;42.196;25.326;2023-12-29T04:45:50;31.98;;;15.82;;
34805;SDS011;65084;42.196;25.326;2023-12-29T04:48:17;32.70;;;18.92;;
34805;SDS011;65084;42.196;25.326;2023-12-29T04:50:44;53.17;;;25.58;;
34805;SDS011;65084;42.196;25.326;2023-12-29T04:53:12;37.55;;;20.05;;
34805;SDS011;65084;42.196;25.326;2023-12-29T04:55:39;37.60;;;19.55;;
34805;SDS011;65084;42.196;25.326;2023-12-29T04:58:06;35.03;;;18.65;;
34805;SDS011;65084;42.196;25.326;2023-12-29T05:00:35;28.95;;;17.08;;
34805;SDS011;65084;42.196;25.326;2023-12-29T05:03:02;24.90;;;16.45;;
34805;SDS011;65084;42.196;25.326;2023-12-29T05:05:30;28.65;;;16.52;;
34805;SDS011;65084;42.196;25.326;2023-12-29T05:07:57;31.95;;;16.92;;
34805;SDS011;65084;42.196;25.326;2023-12-29T05:10:24;34.88;;;17.10;;
34805;SDS011;65084;42.196;25.326;2023-12-29T05:12:51;25.90;;;15.05;;
34805;SDS011;65084;42.196;25.326;2023-12-29T05:15:19;27.98;;;16.42;;
34805;SDS011;65084;42.196;25.326;2023-12-29T05:17:47;98.10;;;32.63;;
34805;SDS011;65084;42.196;25.326;2023-12-29T05:20:15;76.50;;;28.85;;
34805;SDS011;65084;42.196;25.326;2023-12-29T05:22:42;53.53;;;22.77;;
34805;SDS011;65084;42.196;25.326;2023-12-29T05:25:09;61.03;;;25.17;;
34805;SDS011;65084;42.196;25.326;2023-12-29T05:27:37;52.30;;;23.83;;
34805;SDS011;65084;42.196;25.326;2023-12-29T05:30:05;38.72;;;20.38;;
34805;SDS011;65084;42.196;25.326;2023-12-29T05:32:32;41.60;;;21.25;;
34805;SDS011;65084;42.196;25.326;2023-12-29T05:35:01;43.78;;;21.00;;
34805;SDS011;65084;42.196;25.326;2023-12-29T05:37:28;51.22;;;22.33;;
34805;SDS011;65084;42.196;25.326;2023-12-29T05:39:55;53.17;;;23.70;;
34805;SDS011;65084;42.196;25.326;2023-12-29T05:42:23;72.90;;;29.65;;
34805;SDS011;65084;42.196;25.326;2023-12-29T05:44:50;77.22;;;32.10;;
34805;SDS011;65084;42.196;25.326;2023-12-29T05:47:17;78.18;;;30.50;;
34805;SDS011;65084;42.196;25.326;2023-12-29T05:49:45;71.82;;;28.20;;
34805;SDS011;65084;42.196;25.326;2023-12-29T05:52:14;54.88;;;23.45;;
34805;SDS011;65084;42.196;25.326;2023-12-29T05:54:41;57.75;;;23.92;;
34805;SDS011;65084;42.196;25.326;2023-12-29T05:57:08;51.67;;;23.15;;
34805;SDS011;65084;42.196;25.326;2023-12-29T05:59:36;53.85;;;22.65;;
34805;SDS011;65084;42.196;25.326;2023-12-29T06:02:03;46.30;;;21.63;;
34805;SDS011;65084;42.196;25.326;2023-12-29T06:04:30;40.33;;;20.00;;
34805;SDS011;65084;42.196;25.326;2023-12-29T06:06:57;49.17;;;21.50;;
34805;SDS011;65084;42.196;25.326;2023-12-29T06:09:26;53.47;;;22.60;;
34805;SDS011;65084;42.196;25.326;2023-12-29T06:11:54;41.20;;;22.50;;
34805;SDS011;65084;42.196;25.326;2023-12-29T06:14:21;43.08;;;23.10;;
34805;SDS011;65084;42.196;25.326;2023-12-29T06:16:48;52.30;;;25.15;;
34805;SDS011;65084;42.196;25.326;2023-12-29T06:19:16;45.25;;;24.83;;
34805;SDS011;65084;42.196;25.326;2023-12-29T06:21:43;55.05;;;26.30;;
34805;SDS011;65084;42.196;25.326;2023-12-29T06:24:11;53.92;;;25.98;;
34805;SDS011;65084;42.196;25.326;2023-12-29T06:26:39;58.78;;;26.05;;
34805;SDS011;65084;42.196;25.326;2023-12-29T06:29:08;57.53;;;25.25;;
34805;SDS011;65084;42.196;25.326;2023-12-29T06:31:35;56.20;;;27.40;;
34805;SDS011;65084;42.196;25.326;2023-12-29T06:34:03;71.45;;;32.33;;
34805;SDS011;65084;42.196;25.326;2023-12-29T06:36:30;65.75;;;30.83;;
34805;SDS011;65084;42.196;25.326;2023-12-29T06:38:58;64.03;;;30.75;;
34805;SDS011;65084;42.196;25.326;2023-12-29T06:41:25;64.05;;;30.05;;
34805;SDS011;65084;42.196;25.326;2023-12-29T06:43:54;59.83;;;29.55;;
34805;SDS011;65084;42.196;25.326;2023-12-29T06:46:21;57.35;;;29.92;;
34805;SDS011;65084;42.196;25.326;2023-12-29T06:48:48;65.07;;;32.33;;
34805;SDS011;65084;42.196;25.326;2023-12-29T06:51:16;79.00;;;40.38;;
34805;SDS011;65084;42.196;25.326;2023-12-29T06:53:44;72.05;;;35.03;;
34805;SDS011;65084;42.196;25.326;2023-12-29T06:56:12;68.00;;;35.95;;
34805;SDS011;65084;42.196;25.326;2023-12-29T06:58:40;67.15;;;32.35;;
34805;SDS011;65084;42.196;25.326;2023-12-29T07:01:09;65.03;;;33.08;;
34805;SDS011;65084;42.196;25.326;2023-12-29T07:03:36;63.33;;;32.58;;
34805;SDS011;65084;42.196;25.326;2023-12-29T07:06:04;67.35;;;31.38;;
34805;SDS011;65084;42.196;25.326;2023-12-29T07:08:31;51.63;;;28.20;;
34805;SDS011;65084;42.196;25.326;2023-12-29T07:10:59;51.55;;;26.17;;
34805;SDS011;65084;42.196;25.326;2023-12-29T07:13:26;51.67;;;25.60;;
34805;SDS011;65084;42.196;25.326;2023-12-29T07:15:54;39.70;;;22.00;;
34805;SDS011;65084;42.196;25.326;2023-12-29T07:18:23;53.60;;;24.98;;
34805;SDS011;65084;42.196;25.326;2023-12-29T07:20:51;53.83;;;30.02;;
34805;SDS011;65084;42.196;25.326;2023-12-29T07:23:18;53.63;;;25.55;;
34805;SDS011;65084;42.196;25.326;2023-12-29T07:25:46;45.38;;;22.50;;
34805;SDS011;65084;42.196;25.326;2023-12-29T07:28:14;32.72;;;19.00;;
34805;SDS011;65084;42.196;25.326;2023-12-29T07:30:41;38.13;;;21.13;;
34805;SDS011;65084;42.196;25.326;2023-12-29T07:33:09;49.90;;;23.02;;
34805;SDS011;65084;42.196;25.326;2023-12-29T07:35:37;43.20;;;20.73;;
34805;SDS011;65084;42.196;25.326;2023-12-29T07:38:05;44.22;;;20.35;;
34805;SDS011;65084;42.196;25.326;2023-12-29T07:40:32;38.90;;;21.85;;
34805;SDS011;65084;42.196;25.326;2023-12-29T07:42:59;35.90;;;20.27;;
34805;SDS011;65084;42.196;25.326;2023-12-29T07:45:27;42.83;;;21.50;;
34805;SDS011;65084;42.196;25.326;2023-12-29T07:47:55;39.22;;;20.83;;
34805;SDS011;65084;42.196;25.326;2023-12-29T07:50:22;37.60;;;20.60;;
34805;SDS011;65084;42.196;25.326;2023-12-29T07:52:51;47.90;;;21.33;;
34805;SDS011;65084;42.196;25.326;2023-12-29T07:55:18;39.05;;;21.02;;
34805;SDS011;65084;42.196;25.326;2023-12-29T07:57:46;37.08;;;22.50;;
34805;SDS011;65084;42.196;25.326;2023-12-29T08:00:14;40.85;;;21.95;;
34805;SDS011;65084;42.196;25.326;2023-12-29T08:02:41;33.67;;;19.75;;
34805;SDS011;65084;42.196;25.326;2023-12-29T08:05:08;32.70;;;18.58;;
34805;SDS011;65084;42.196;25.326;2023-12-29T08:07:36;32.80;;;18.75;;
34805;SDS011;65084;42.196;25.326;2023-12-29T08:10:05;40.90;;;22.58;;
34805;SDS011;65084;42.196;25.326;2023-12-29T08:12:33;38.92;;;22.77;;
34805;SDS011;65084;42.196;25.326;2023-12-29T08:15:01;43.20;;;22.02;;
34805;SDS011;65084;42.196;25.326;2023-12-29T08:17:28;42.95;;;20.85;;
34805;SDS011;65084;42.196;25.326;2023-12-29T08:19:56;39.85;;;19.25;;
34805;SDS011;65084;42.196;25.326;2023-12-29T08:22:23;29.48;;;17.25;;
34805;SDS011;65084;42.196;25.326;2023-12-29T08:24:50;78.60;;;23.35;;
34805;SDS011;65084;42.196;25.326;2023-12-29T08:27:23;34.38;;;15.45;;
34805;SDS011;65084;42.196;25.326;2023-12-29T08:29:50;19.10;;;12.15;;
34805;SDS011;65084;42.196;25.326;2023-12-29T08:32:19;27.98;;;13.57;;
34805;SDS011;65084;42.196;25.326;2023-12-29T08:34:46;37.05;;;21.00;;
34805;SDS011;65084;42.196;25.326;2023-12-29T08:37:14;41.20;;;22.77;;
34805;SDS011;65084;42.196;25.326;2023-12-29T08:39:45;56.83;;;26.50;;
34805;SDS011;65084;42.196;25.326;2023-12-29T08:42:12;83.72;;;38.80;;
34805;SDS011;65084;42.196;25.326;2023-12-29T08:44:41;90.68;;;40.22;;
34805;SDS011;65084;42.196;25.326;2023-12-29T08:47:08;38.47;;;21.15;;
34805;SDS011;65084;42.196;25.326;2023-12-29T08:49:36;20.98;;;12.00;;
34805;SDS011;65084;42.196;25.326;2023-12-29T08:52:03;23.92;;;12.80;;
34805;SDS011;65084;42.196;25.326;2023-12-29T08:54:31;23.25;;;12.57;;
34805;SDS011;65084;42.196;25.326;2023-12-29T08:56:58;29.52;;;13.90;;
34805;SDS011;65084;42.196;25.326;2023-12-29T08:59:25;34.60;;;15.40;;
34805;SDS011;65084;42.196;25.326;2023-12-29T09:01:54;29.55;;;12.85;;
34805;SDS011;65084;42.196;25.326;2023-12-29T09:04:21;22.17;;;13.18;;
34805;SDS011;65084;42.196;25.326;2023-12-29T09:06:48;70.63;;;23.70;;
34805;SDS011;65084;42.196;25.326;2023-12-29T09:09:16;37.45;;;17.42;;
34805;SDS011;65084;42.196;25.326;2023-12-29T09:11:43;24.45;;;13.90;;
34805;SDS011;65084;42.196;25.326;2023-12-29T09:14:11;23.92;;;13.07;;
34805;SDS011;65084;42.196;25.326;2023-12-29T09:16:38;42.28;;;16.52;;
34805;SDS011;65084;42.196;25.326;2023-12-29T09:19:09;26.77;;;14.05;;
34805;SDS011;65084;42.196;25.326;2023-12-29T09:21:36;39.50;;;17.15;;
34805;SDS011;65084;42.196;25.326;2023-12-29T09:24:03;29.95;;;15.93;;
34805;SDS011;65084;42.196;25.326;2023-12-29T09:26:30;35.55;;;16.20;;
34805;SDS011;65084;42.196;25.326;2023-12-29T09:28:58;32.58;;;14.90;;
34805;SDS011;65084;42.196;25.326;2023-12-29T09:31:26;21.10;;;13.98;;
34805;SDS011;65084;42.196;25.326;2023-12-29T09:33:53;22.83;;;14.27;;
34805;SDS011;65084;42.196;25.326;2023-12-29T09:36:23;31.02;;;16.10;;
34805;SDS011;65084;42.196;25.326;2023-12-29T09:38:50;28.13;;;15.30;;
34805;SDS011;65084;42.196;25.326;2023-12-29T09:41:17;22.15;;;13.60;;
34805;SDS011;65084;42.196;25.326;2023-12-29T09:43:45;25.98;;;14.20;;
34805;SDS011;65084;42.196;25.326;2023-12-29T09:46:15;30.88;;;13.90;;
34805;SDS011;65084;42.196;25.326;2023-12-29T09:48:44;40.78;;;18.20;;
34805;SDS011;65084;42.196;25.326;2023-12-29T09:51:12;30.77;;;16.10;;
34805;SDS011;65084;42.196;25.326;2023-12-29T09:53:41;33.90;;;15.73;;
34805;SDS011;65084;42.196;25.326;2023-12-29T09:56:09;28.10;;;11.45;;
34805;SDS011;65084;42.196;25.326;2023-12-29T09:58:36;32.22;;;12.57;;
34805;SDS011;65084;42.196;25.326;2023-12-29T10:01:04;28.30;;;12.55;;
34805;SDS011;65084;42.196;25.326;2023-12-29T10:03:31;31.55;;;14.65;;
34805;SDS011;65084;42.196;25.326;2023-12-29T10:06:00;33.90;;;13.88;;
34805;SDS011;65084;42.196;25.326;2023-12-29T10:08:27;36.97;;;18.55;;
34805;SDS011;65084;42.196;25.326;2023-12-29T10:10:57;31.30;;;13.63;;
34805;SDS011;65084;42.196;25.326;2023-12-29T10:13:25;29.63;;;14.75;;
34805;SDS011;65084;42.196;25.326;2023-12-29T10:15:54;30.23;;;11.48;;
34805;SDS011;65084;42.196;25.326;2023-12-29T10:18:26;38.78;;;15.98;;
34805;SDS011;65084;42.196;25.326;2023-12-29T10:20:56;51.90;;;23.40;;
34805;SDS011;65084;42.196;25.326;2023-12-29T10:23:26;35.03;;;17.25;;
34805;SDS011;65084;42.196;25.326;2023-12-29T10:25:57;41.50;;;15.55;;
34805;SDS011;65084;42.196;25.326;2023-12-29T10:28:24;16.38;;;10.30;;
34805;SDS011;65084;42.196;25.326;2023-12-29T10:30:51;15.93;;;8.63;;
34805;SDS011;65084;42.196;25.326;2023-12-29T10:33:19;14.13;;;7.80;;
34805;SDS011;65084;42.196;25.326;2023-12-29T10:35:56;13.85;;;8.70;;
34805;SDS011;65084;42.196;25.326;2023-12-29T10:38:27;9.63;;;7.50;;
34805;SDS011;65084;42.196;25.326;2023-12-29T10:40:54;11.90;;;7.00;;
34805;SDS011;65084;42.196;25.326;2023-12-29T10:43:23;20.15;;;8.13;;
34805;SDS011;65084;42.196;25.326;2023-12-29T10:45:55;11.93;;;8.65;;
34805;SDS011;65084;42.196;25.326;2023-12-29T10:48:32;12.38;;;8.73;;
34805;SDS011;65084;42.196;25.326;2023-12-29T10:51:00;17.70;;;10.68;;
34805;SDS011;65084;42.196;25.326;2023-12-29T10:53:29;12.70;;;8.57;;
34805;SDS011;65084;42.196;25.326;2023-12-29T10:55:56;13.00;;;8.15;;
34805;SDS011;65084;42.196;25.326;2023-12-29T10:58:25;17.63;;;10.52;;
34805;SDS011;65084;42.196;25.326;2023-12-29T11:00:54;11.88;;;8.15;;
34805;SDS011;65084;42.196;25.326;2023-12-29T11:03:22;14.43;;;8.82;;
34805;SDS011;65084;42.196;25.326;2023-12-29T11:05:49;21.10;;;10.40;;
34805;SDS011;65084;42.196;25.326;2023-12-29T11:08:17;15.60;;;9.32;;
34805;SDS011;65084;42.196;25.326;2023-12-29T11:10:44;13.40;;;9.00;;
34805;SDS011;65084;42.196;25.326;2023-12-29T11:13:11;24.65;;;9.77;;
34805;SDS011;65084;42.196;25.326;2023-12-29T11:15:41;13.30;;;8.93;;
34805;SDS011;65084;42.196;25.326;2023-12-29T11:18:10;15.93;;;8.93;;
34805;SDS011;65084;42.196;25.326;2023-12-29T11:20:38;13.15;;;9.38;;
34805;SDS011;65084;42.196;25.326;2023-12-29T11:23:06;18.98;;;9.85;;
34805;SDS011;65084;42.196;25.326;2023-12-29T11:25:33;17.70;;;9.52;;
34805;SDS011;65084;42.196;25.326;2023-12-29T11:28:01;15.77;;;9.70;;
34805;SDS011;65084;42.196;25.326;2023-12-29T11:30:28;17.55;;;9.52;;
34805;SDS011;65084;42.196;25.326;2023-12-29T11:32:57;15.95;;;10.90;;
34805;SDS011;65084;42.196;25.326;2023-12-29T11:35:27;25.42;;;11.07;;
34805;SDS011;65084;42.196;25.326;2023-12-29T11:37:59;20.90;;;11.25;;
34805;SDS011;65084;42.196;25.326;2023-12-29T11:40:29;15.85;;;10.70;;
34805;SDS011;65084;42.196;25.326;2023-12-29T11:42:59;23.05;;;10.38;;
34805;SDS011;65084;42.196;25.326;2023-12-29T11:45:28;20.63;;;11.05;;
34805;SDS011;65084;42.196;25.326;2023-12-29T11:47:58;17.02;;;10.98;;
34805;SDS011;65084;42.196;25.326;2023-12-29T11:50:28;17.10;;;9.80;;
34805;SDS011;65084;42.196;25.326;2023-12-29T11:52:56;14.82;;;7.57;;
34805;SDS011;65084;42.196;25.326;2023-12-29T11:55:27;13.32;;;10.20;;
34805;SDS011;65084;42.196;25.326;2023-12-29T11:57:55;13.27;;;8.55;;
34805;SDS011;65084;42.196;25.326;2023-12-29T12:00:40;16.17;;;8.68;;
34805;SDS011;65084;42.196;25.326;2023-12-29T12:03:19;16.95;;;10.20;;
34805;SDS011;65084;42.196;25.326;2023-12-29T12:05:51;19.02;;;8.90;;
34805;SDS011;65084;42.196;25.326;2023-12-29T12:08:29;14.27;;;8.40;;
34805;SDS011;65084;42.196;25.326;2023-12-29T12:10:56;15.70;;;9.75;;
34805;SDS011;65084;42.196;25.326;2023-12-29T12:16:09;16.37;;;8.23;;
34805;SDS011;65084;42.196;25.326;2023-12-29T12:18:39;20.73;;;8.98;;
34805;SDS011;65084;42.196;25.326;2023-12-29T12:21:06;16.88;;;9.32;;
34805;SDS011;65084;42.196;25.326;2023-12-29T12:23:34;17.52;;;9.50;;
34805;SDS011;65084;42.196;25.326;2023-12-29T12:26:06;13.18;;;9.02;;
34805;SDS011;65084;42.196;25.326;2023-12-29T12:28:33;17.75;;;10.68;;
34805;SDS011;65084;42.196;25.326;2023-12-29T12:31:06;11.00;;;8.18;;
34805;SDS011;65084;42.196;25.326;2023-12-29T12:33:34;16.98;;;8.82;;
34805;SDS011;65084;42.196;25.326;2023-12-29T12:36:02;20.92;;;9.20;;
34805;SDS011;65084;42.196;25.326;2023-12-29T12:38:31;15.88;;;9.45;;
34805;SDS011;65084;42.196;25.326;2023-12-29T12:41:08;14.48;;;9.52;;
34805;SDS011;65084;42.196;25.326;2023-12-29T12:43:36;14.00;;;9.50;;
34805;SDS011;65084;42.196;25.326;2023-12-29T12:46:05;15.18;;;8.00;;
34805;SDS011;65084;42.196;25.326;2023-12-29T12:48:39;10.68;;;7.55;;
34805;SDS011;65084;42.196;25.326;2023-12-29T12:51:09;23.13;;;8.73;;
34805;SDS011;65084;42.196;25.326;2023-12-29T12:53:39;23.00;;;9.82;;
34805;SDS011;65084;42.196;25.326;2023-12-29T12:56:06;9.30;;;5.70;;
34805;SDS011;65084;42.196;25.326;2023-12-29T12:58:34;11.82;;;5.50;;
34805;SDS011;65084;42.196;25.326;2023-12-29T13:01:01;8.20;;;5.28;;
34805;SDS011;65084;42.196;25.326;2023-12-29T13:03:29;7.43;;;5.53;;
34805;SDS011;65084;42.196;25.326;2023-12-29T13:05:57;17.88;;;6.40;;
34805;SDS011;65084;42.196;25.326;2023-12-29T13:08:26;7.22;;;4.90;;
34805;SDS011;65084;42.196;25.326;2023-12-29T13:10:53;10.70;;;5.32;;
34805;SDS011;65084;42.196;25.326;2023-12-29T13:13:21;7.45;;;4.47;;
34805;SDS011;65084;42.196;25.326;2023-12-29T13:15:48;6.20;;;5.18;;
34805;SDS011;65084;42.196;25.326;2023-12-29T13:18:16;8.70;;;5.13;;
34805;SDS011;65084;42.196;25.326;2023-12-29T13:20:43;10.75;;;5.50;;
34805;SDS011;65084;42.196;25.326;2023-12-29T13:23:11;10.13;;;5.47;;
34805;SDS011;65084;42.196;25.326;2023-12-29T13:25:40;7.70;;;5.40;;
34805;SDS011;65084;42.196;25.326;2023-12-29T13:28:10;9.88;;;5.60;;
34805;SDS011;65084;42.196;25.326;2023-12-29T13:30:37;10.38;;;6.95;;
34805;SDS011;65084;42.196;25.326;2023-12-29T13:33:07;12.02;;;8.80;;
34805;SDS011;65084;42.196;25.326;2023-12-29T13:35:37;13.43;;;7.07;;
34805;SDS011;65084;42.196;25.326;2023-12-29T13:38:07;10.63;;;6.75;;
34805;SDS011;65084;42.196;25.326;2023-12-29T13:40:37;8.73;;;5.75;;
34805;SDS011;65084;42.196;25.326;2023-12-29T13:43:07;19.42;;;11.27;;
34805;SDS011;65084;42.196;25.326;2023-12-29T13:45:36;12.25;;;8.32;;
34805;SDS011;65084;42.196;25.326;2023-12-29T13:48:04;13.90;;;7.20;;
34805;SDS011;65084;42.196;25.326;2023-12-29T13:50:32;10.43;;;7.03;;
34805;SDS011;65084;42.196;25.326;2023-12-29T13:52:59;11.98;;;7.97;;
34805;SDS011;65084;42.196;25.326;2023-12-29T13:55:27;12.63;;;7.68;;
34805;SDS011;65084;42.196;25.326;2023-12-29T13:57:54;8.52;;;6.43;;
34805;SDS011;65084;42.196;25.326;2023-12-29T14:00:23;9.30;;;6.60;;
34805;SDS011;65084;42.196;25.326;2023-12-29T14:02:57;13.15;;;6.25;;
34805;SDS011;65084;42.196;25.326;2023-12-29T14:05:27;14.90;;;8.30;;
34805;SDS011;65084;42.196;25.326;2023-12-29T14:07:58;11.50;;;7.53;;
34805;SDS011;65084;42.196;25.326;2023-12-29T14:10:28;13.65;;;8.50;;
34805;SDS011;65084;42.196;25.326;2023-12-29T14:13:02;21.52;;;8.50;;
34805;SDS011;65084;42.196;25.326;2023-12-29T14:15:35;13.32;;;9.18;;
34805;SDS011;65084;42.196;25.326;2023-12-29T14:18:03;14.80;;;8.95;;
34805;SDS011;65084;42.196;25.326;2023-12-29T14:20:33;29.27;;;17.65;;
34805;SDS011;65084;42.196;25.326;2023-12-29T14:23:03;35.20;;;17.13;;